sensor_id;sensor_type;location;lat;lon;timestamp;pressure;altitude;pressure_sealevel;temperature;humidity
40992;BME280;29633;49.168;9.848;2023-02-04T00:00:52;97929.31;;;11.08;77.24
40992;BME280;29633;49.168;9.848;2023-02-04T00:03:18;97931.06;;;11.08;77.37
40992;BME280;29633;49.168;9.848;2023-02-04T00:05:43;97931.72;;;11.11;77.07
40992;BME280;29633;49.168;9.848;2023-02-04T00:08:09;97923.91;;;11.11;77.17
40992;BME280;29633;49.168;9.848;2023-02-04T00:10:35;97921.66;;;11.07;77.20
40992;BME280;29633;49.168;9.848;2023-02-04T00:13:04;97921.72;;;11.05;77.22
40992;BME280;29633;49.168;9.848;2023-02-04T00:15:30;97926.28;;;11.02;77.10
40992;BME280;29633;49.168;9.848;2023-02-04T00:17:55;97932.41;;;11.01;77.06
40992;BME280;29633;49.168;9.848;2023-02-04T00:20:22;97924.81;;;10.98;76.84
40992;BME280;29633;49.168;9.848;2023-02-04T00:22:47;97920.75;;;10.94;77.06
40992;BME280;29633;49.168;9.848;2023-02-04T00:25:13;97932.78;;;10.95;76.96
40992;BME280;29633;49.168;9.848;2023-02-04T00:27:38;97933.50;;;10.97;77.03
40992;BME280;29633;49.168;9.848;2023-02-04T00:30:05;97924.72;;;10.99;76.96
40992;BME280;29633;49.168;9.848;2023-02-04T00:32:31;97916.81;;;11.01;76.77
40992;BME280;29633;49.168;9.848;2023-02-04T00:34:56;97912.56;;;11.00;76.80
40992;BME280;29633;49.168;9.848;2023-02-04T00:37:22;97920.34;;;11.00;76.62
40992;BME280;29633;49.168;9.848;2023-02-04T00:39:48;97913.50;;;10.99;76.64
40992;BME280;29633;49.168;9.848;2023-02-04T00:42:13;97911.13;;;10.96;76.62
40992;BME280;29633;49.168;9.848;2023-02-04T00:44:39;97913.25;;;10.89;76.40
40992;BME280;29633;49.168;9.848;2023-02-04T00:47:05;97909.22;;;10.85;76.56
40992;BME280;29633;49.168;9.848;2023-02-04T00:49:32;97922.25;;;10.83;76.73
40992;BME280;29633;49.168;9.848;2023-02-04T00:51:57;97924.00;;;10.83;76.44
40992;BME280;29633;49.168;9.848;2023-02-04T00:54:23;97908.56;;;10.81;76.37
40992;BME280;29633;49.168;9.848;2023-02-04T00:56:49;97925.13;;;10.79;76.62
40992;BME280;29633;49.168;9.848;2023-02-04T00:59:14;97925.97;;;10.79;76.36
40992;BME280;29633;49.168;9.848;2023-02-04T01:01:40;97926.16;;;10.76;76.24
40992;BME280;29633;49.168;9.848;2023-02-04T01:04:06;97931.75;;;10.70;76.26
40992;BME280;29633;49.168;9.848;2023-02-04T01:06:32;97938.88;;;10.67;76.24
40992;BME280;29633;49.168;9.848;2023-02-04T01:08:57;97960.56;;;10.66;76.32
40992;BME280;29633;49.168;9.848;2023-02-04T01:11:23;97958.16;;;10.63;76.38
40992;BME280;29633;49.168;9.848;2023-02-04T01:13:49;97959.91;;;10.62;76.19
40992;BME280;29633;49.168;9.848;2023-02-04T01:16:14;97956.47;;;10.62;76.06
40992;BME280;29633;49.168;9.848;2023-02-04T01:18:40;97947.88;;;10.61;75.97
40992;BME280;29633;49.168;9.848;2023-02-04T01:21:06;97958.44;;;10.58;76.06
40992;BME280;29633;49.168;9.848;2023-02-04T01:23:31;97962.69;;;10.59;76.10
40992;BME280;29633;49.168;9.848;2023-02-04T01:25:57;97969.84;;;10.56;75.92
40992;BME280;29633;49.168;9.848;2023-02-04T01:28:23;97960.38;;;10.55;75.91
40992;BME280;29633;49.168;9.848;2023-02-04T01:30:48;97969.19;;;10.52;75.96
40992;BME280;29633;49.168;9.848;2023-02-04T01:33:14;97974.19;;;10.55;75.77
40992;BME280;29633;49.168;9.848;2023-02-04T01:35:40;97982.88;;;10.54;75.79
40992;BME280;29633;49.168;9.848;2023-02-04T01:38:05;97986.38;;;10.53;75.50
40992;BME280;29633;49.168;9.848;2023-02-04T01:40:31;97991.03;;;10.48;75.66
40992;BME280;29633;49.168;9.848;2023-02-04T01:42:57;97988.63;;;10.45;75.77
40992;BME280;29633;49.168;9.848;2023-02-04T01:45:22;97996.41;;;10.45;75.58
40992;BME280;29633;49.168;9.848;2023-02-04T01:47:48;97991.75;;;10.50;75.70
40992;BME280;29633;49.168;9.848;2023-02-04T01:50:15;97996.22;;;10.48;75.39
40992;BME280;29633;49.168;9.848;2023-02-04T01:52:41;97997.31;;;10.44;75.48
40992;BME280;29633;49.168;9.848;2023-02-04T01:55:16;98004.53;;;10.39;75.50
40992;BME280;29633;49.168;9.848;2023-02-04T01:57:42;97999.47;;;10.38;75.31
40992;BME280;29633;49.168;9.848;2023-02-04T02:00:16;98007.31;;;10.36;75.45
40992;BME280;29633;49.168;9.848;2023-02-04T02:02:46;98005.81;;;10.32;75.44
40992;BME280;29633;49.168;9.848;2023-02-04T02:05:18;98009.34;;;10.31;75.43
40992;BME280;29633;49.168;9.848;2023-02-04T02:07:49;98008.41;;;10.32;75.43
40992;BME280;29633;49.168;9.848;2023-02-04T02:10:15;98014.63;;;10.29;75.24
40992;BME280;29633;49.168;9.848;2023-02-04T02:12:42;98017.47;;;10.25;75.29
40992;BME280;29633;49.168;9.848;2023-02-04T02:15:09;98012.28;;;10.25;75.35
40992;BME280;29633;49.168;9.848;2023-02-04T02:17:35;98018.25;;;10.27;75.25
40992;BME280;29633;49.168;9.848;2023-02-04T02:20:01;98021.81;;;10.24;75.28
40992;BME280;29633;49.168;9.848;2023-02-04T02:22:31;98015.06;;;10.22;75.40
40992;BME280;29633;49.168;9.848;2023-02-04T02:24:59;98023.88;;;10.19;75.23
40992;BME280;29633;49.168;9.848;2023-02-04T02:27:25;98022.28;;;10.17;75.26
40992;BME280;29633;49.168;9.848;2023-02-04T02:29:51;98021.28;;;10.19;75.13
40992;BME280;29633;49.168;9.848;2023-02-04T02:32:16;98025.00;;;10.14;75.17
40992;BME280;29633;49.168;9.848;2023-02-04T02:34:42;98038.91;;;10.13;75.13
40992;BME280;29633;49.168;9.848;2023-02-04T02:37:09;98051.13;;;10.11;74.98
40992;BME280;29633;49.168;9.848;2023-02-04T02:39:38;98048.69;;;10.08;75.13
40992;BME280;29633;49.168;9.848;2023-02-04T02:42:04;98045.47;;;10.04;75.08
40992;BME280;29633;49.168;9.848;2023-02-04T02:44:30;98035.47;;;9.98;75.01
40992;BME280;29633;49.168;9.848;2023-02-04T02:46:57;98036.56;;;9.94;74.94
40992;BME280;29633;49.168;9.848;2023-02-04T02:49:22;98036.03;;;9.87;75.22
40992;BME280;29633;49.168;9.848;2023-02-04T02:51:48;98032.00;;;9.83;75.21
40992;BME280;29633;49.168;9.848;2023-02-04T02:54:27;98030.22;;;9.84;75.03
40992;BME280;29633;49.168;9.848;2023-02-04T02:56:53;98038.16;;;9.81;75.18
40992;BME280;29633;49.168;9.848;2023-02-04T02:59:20;98038.16;;;9.81;74.97
40992;BME280;29633;49.168;9.848;2023-02-04T03:01:47;98043.09;;;9.85;74.90
40992;BME280;29633;49.168;9.848;2023-02-04T03:04:14;98057.78;;;9.85;74.88
40992;BME280;29633;49.168;9.848;2023-02-04T03:06:40;98059.53;;;9.84;74.94
40992;BME280;29633;49.168;9.848;2023-02-04T03:09:06;98063.88;;;9.84;75.04
40992;BME280;29633;49.168;9.848;2023-02-04T03:11:31;98063.06;;;9.83;74.89
40992;BME280;29633;49.168;9.848;2023-02-04T03:13:58;98063.06;;;9.83;75.01
40992;BME280;29633;49.168;9.848;2023-02-04T03:16:29;98073.16;;;9.88;74.64
40992;BME280;29633;49.168;9.848;2023-02-04T03:18:59;98089.69;;;9.85;75.06
40992;BME280;29633;49.168;9.848;2023-02-04T03:21:26;98099.88;;;9.88;74.70
40992;BME280;29633;49.168;9.848;2023-02-04T03:23:52;98112.84;;;9.88;74.91
40992;BME280;29633;49.168;9.848;2023-02-04T03:26:22;98111.75;;;9.93;74.66
40992;BME280;29633;49.168;9.848;2023-02-04T03:28:48;98118.59;;;9.94;74.76
40992;BME280;29633;49.168;9.848;2023-02-04T03:31:13;98119.34;;;9.96;74.57
40992;BME280;29633;49.168;9.848;2023-02-04T03:33:39;98125.47;;;9.95;74.68
40992;BME280;29633;49.168;9.848;2023-02-04T03:36:05;98123.78;;;9.94;74.56
40992;BME280;29633;49.168;9.848;2023-02-04T03:38:31;98122.03;;;9.94;74.69
40992;BME280;29633;49.168;9.848;2023-02-04T03:40:58;98128.19;;;9.92;74.78
40992;BME280;29633;49.168;9.848;2023-02-04T03:43:24;98130.91;;;9.90;74.57
40992;BME280;29633;49.168;9.848;2023-02-04T03:45:49;98146.59;;;9.87;74.77
40992;BME280;29633;49.168;9.848;2023-02-04T03:48:15;98137.91;;;9.88;74.62
40992;BME280;29633;49.168;9.848;2023-02-04T03:50:40;98131.22;;;9.84;74.81
40992;BME280;29633;49.168;9.848;2023-02-04T03:53:06;98132.41;;;9.78;74.48
40992;BME280;29633;49.168;9.848;2023-02-04T03:55:32;98133.31;;;9.77;74.51
40992;BME280;29633;49.168;9.848;2023-02-04T03:57:58;98135.06;;;9.77;74.61
40992;BME280;29633;49.168;9.848;2023-02-04T04:00:23;98144.75;;;9.73;74.74
40992;BME280;29633;49.168;9.848;2023-02-04T04:02:49;98145.59;;;9.74;74.57
40992;BME280;29633;49.168;9.848;2023-02-04T04:05:15;98145.59;;;9.74;74.86
40992;BME280;29633;49.168;9.848;2023-02-04T04:07:41;98154.31;;;9.73;74.59
40992;BME280;29633;49.168;9.848;2023-02-04T04:10:07;98155.13;;;9.73;74.72
40992;BME280;29633;49.168;9.848;2023-02-04T04:12:33;98165.34;;;9.76;74.50
40992;BME280;29633;49.168;9.848;2023-02-04T04:14:58;98163.56;;;9.77;74.65
40992;BME280;29633;49.168;9.848;2023-02-04T04:17:24;98167.91;;;9.76;74.61
40992;BME280;29633;49.168;9.848;2023-02-04T04:19:49;98167.16;;;9.74;74.53
40992;BME280;29633;49.168;9.848;2023-02-04T04:22:15;98169.00;;;9.72;74.55
40992;BME280;29633;49.168;9.848;2023-02-04T04:24:41;98176.66;;;9.74;74.78
40992;BME280;29633;49.168;9.848;2023-02-04T04:27:07;98179.34;;;9.72;74.59
40992;BME280;29633;49.168;9.848;2023-02-04T04:29:32;98185.38;;;9.73;74.43
40992;BME280;29633;49.168;9.848;2023-02-04T04:31:58;98184.72;;;9.69;74.57
40992;BME280;29633;49.168;9.848;2023-02-04T04:34:24;98183.34;;;9.62;74.62
40992;BME280;29633;49.168;9.848;2023-02-04T04:36:49;98179.19;;;9.60;74.37
40992;BME280;29633;49.168;9.848;2023-02-04T04:39:15;98184.44;;;9.58;74.42
40992;BME280;29633;49.168;9.848;2023-02-04T04:41:40;98187.19;;;9.55;74.96
40992;BME280;29633;49.168;9.848;2023-02-04T04:44:06;98189.88;;;9.54;74.59
40992;BME280;29633;49.168;9.848;2023-02-04T04:46:32;98204.56;;;9.53;74.48
40992;BME280;29633;49.168;9.848;2023-02-04T04:48:57;98202.72;;;9.55;74.40
40992;BME280;29633;49.168;9.848;2023-02-04T04:51:23;98209.50;;;9.58;74.32
40992;BME280;29633;49.168;9.848;2023-02-04T04:53:49;98207.59;;;9.61;74.23
40992;BME280;29633;49.168;9.848;2023-02-04T04:56:14;98202.31;;;9.63;74.20
40992;BME280;29633;49.168;9.848;2023-02-04T04:58:40;98198.88;;;9.62;74.18
40992;BME280;29633;49.168;9.848;2023-02-04T05:01:05;98204.16;;;9.61;74.34
40992;BME280;29633;49.168;9.848;2023-02-04T05:03:31;98195.38;;;9.63;74.38
40992;BME280;29633;49.168;9.848;2023-02-04T05:05:57;98194.63;;;9.61;74.15
40992;BME280;29633;49.168;9.848;2023-02-04T05:08:22;98195.63;;;9.59;74.10
40992;BME280;29633;49.168;9.848;2023-02-04T05:10:48;98194.13;;;9.55;74.41
40992;BME280;29633;49.168;9.848;2023-02-04T05:13:15;98194.38;;;9.50;74.36
40992;BME280;29633;49.168;9.848;2023-02-04T05:15:41;98203.22;;;9.46;74.43
40992;BME280;29633;49.168;9.848;2023-02-04T05:18:06;98202.31;;;9.47;74.30
40992;BME280;29633;49.168;9.848;2023-02-04T05:20:32;98201.53;;;9.45;74.14
40992;BME280;29633;49.168;9.848;2023-02-04T05:22:58;98198.28;;;9.42;74.21
40992;BME280;29633;49.168;9.848;2023-02-04T05:25:27;98195.00;;;9.38;74.17
40992;BME280;29633;49.168;9.848;2023-02-04T05:27:53;98199.34;;;9.37;74.18
40992;BME280;29633;49.168;9.848;2023-02-04T05:30:19;98200.34;;;9.35;74.25
40992;BME280;29633;49.168;9.848;2023-02-04T05:32:45;98192.53;;;9.36;74.27
40992;BME280;29633;49.168;9.848;2023-02-04T05:35:10;98195.00;;;9.38;74.16
40992;BME280;29633;49.168;9.848;2023-02-04T05:37:36;98198.59;;;9.35;73.94
40992;BME280;29633;49.168;9.848;2023-02-04T05:40:02;98199.50;;;9.34;73.95
40992;BME280;29633;49.168;9.848;2023-02-04T05:42:28;98205.53;;;9.35;73.89
40992;BME280;29633;49.168;9.848;2023-02-04T05:44:53;98203.94;;;9.32;73.88
40992;BME280;29633;49.168;9.848;2023-02-04T05:47:19;98206.59;;;9.31;74.00
40992;BME280;29633;49.168;9.848;2023-02-04T05:49:45;98211.03;;;9.29;73.95
40992;BME280;29633;49.168;9.848;2023-02-04T05:52:11;98221.38;;;9.29;73.94
40992;BME280;29633;49.168;9.848;2023-02-04T05:54:36;98221.38;;;9.29;73.90
40992;BME280;29633;49.168;9.848;2023-02-04T05:57:02;98243.75;;;9.30;73.77
40992;BME280;29633;49.168;9.848;2023-02-04T05:59:28;98253.97;;;9.33;73.94
40992;BME280;29633;49.168;9.848;2023-02-04T06:01:53;98258.97;;;9.36;73.92
40992;BME280;29633;49.168;9.848;2023-02-04T06:04:19;98248.63;;;9.36;73.73
40992;BME280;29633;49.168;9.848;2023-02-04T06:06:45;98263.22;;;9.37;73.79
40992;BME280;29633;49.168;9.848;2023-02-04T06:09:10;98278.66;;;9.38;73.69
40992;BME280;29633;49.168;9.848;2023-02-04T06:11:36;98274.34;;;9.39;73.76
40992;BME280;29633;49.168;9.848;2023-02-04T06:14:02;98280.41;;;9.38;73.50
40992;BME280;29633;49.168;9.848;2023-02-04T06:16:27;98283.16;;;9.35;73.56
40992;BME280;29633;49.168;9.848;2023-02-04T06:18:53;98275.47;;;9.33;73.75
40992;BME280;29633;49.168;9.848;2023-02-04T06:21:19;98276.31;;;9.34;73.73
40992;BME280;29633;49.168;9.848;2023-02-04T06:23:44;98279.69;;;9.36;73.84
40992;BME280;29633;49.168;9.848;2023-02-04T06:26:10;98275.41;;;9.35;73.69
40992;BME280;29633;49.168;9.848;2023-02-04T06:28:36;98276.16;;;9.37;73.57
40992;BME280;29633;49.168;9.848;2023-02-04T06:31:02;98281.19;;;9.40;73.58
40992;BME280;29633;49.168;9.848;2023-02-04T06:33:27;98286.22;;;9.43;73.54
40992;BME280;29633;49.168;9.848;2023-02-04T06:35:53;98291.38;;;9.43;73.41
40992;BME280;29633;49.168;9.848;2023-02-04T06:38:19;98291.38;;;9.43;73.50
40992;BME280;29633;49.168;9.848;2023-02-04T06:40:45;98286.38;;;9.40;73.37
40992;BME280;29633;49.168;9.848;2023-02-04T06:43:14;98290.78;;;9.38;73.48
40992;BME280;29633;49.168;9.848;2023-02-04T06:45:40;98286.38;;;9.40;73.53
40992;BME280;29633;49.168;9.848;2023-02-04T06:48:06;98292.28;;;9.42;73.61
40992;BME280;29633;49.168;9.848;2023-02-04T06:50:32;98299.06;;;9.45;73.35
40992;BME280;29633;49.168;9.848;2023-02-04T06:52:57;98299.00;;;9.46;73.48
40992;BME280;29633;49.168;9.848;2023-02-04T06:55:23;98299.81;;;9.47;73.33
40992;BME280;29633;49.168;9.848;2023-02-04T06:57:48;98305.84;;;9.47;73.37
40992;BME280;29633;49.168;9.848;2023-02-04T07:00:14;98307.44;;;9.50;73.40
40992;BME280;29633;49.168;9.848;2023-02-04T07:02:40;98307.38;;;9.51;73.43
40992;BME280;29633;49.168;9.848;2023-02-04T07:05:07;98317.63;;;9.53;73.29
40992;BME280;29633;49.168;9.848;2023-02-04T07:07:33;98320.16;;;9.54;73.28
40992;BME280;29633;49.168;9.848;2023-02-04T07:09:59;98321.72;;;9.57;73.33
40992;BME280;29633;49.168;9.848;2023-02-04T07:12:24;98319.38;;;9.52;73.13
40992;BME280;29633;49.168;9.848;2023-02-04T07:14:50;98328.06;;;9.51;73.06
40992;BME280;29633;49.168;9.848;2023-02-04T07:17:16;98325.53;;;9.50;73.23
40992;BME280;29633;49.168;9.848;2023-02-04T07:19:41;98328.13;;;9.50;73.23
40992;BME280;29633;49.168;9.848;2023-02-04T07:22:07;98331.41;;;9.53;73.18
40992;BME280;29633;49.168;9.848;2023-02-04T07:24:33;98332.03;;;9.58;73.16
40992;BME280;29633;49.168;9.848;2023-02-04T07:26:58;98345.78;;;9.59;73.25
40992;BME280;29633;49.168;9.848;2023-02-04T07:29:24;98346.63;;;9.59;73.05
40992;BME280;29633;49.168;9.848;2023-02-04T07:31:50;98353.47;;;9.60;73.09
40992;BME280;29633;49.168;9.848;2023-02-04T07:34:17;98359.25;;;9.65;73.13
40992;BME280;29633;49.168;9.848;2023-02-04T07:36:43;98362.59;;;9.67;73.11
40992;BME280;29633;49.168;9.848;2023-02-04T07:39:08;98367.78;;;9.67;73.41
40992;BME280;29633;49.168;9.848;2023-02-04T07:41:35;98373.72;;;9.69;73.33
40992;BME280;29633;49.168;9.848;2023-02-04T07:44:00;98374.53;;;9.70;73.38
40992;BME280;29633;49.168;9.848;2023-02-04T07:46:26;98376.31;;;9.69;73.45
40992;BME280;29633;49.168;9.848;2023-02-04T07:48:52;98383.16;;;9.70;73.26
40992;BME280;29633;49.168;9.848;2023-02-04T07:51:17;98388.09;;;9.75;73.45
40992;BME280;29633;49.168;9.848;2023-02-04T07:53:43;98387.03;;;9.79;73.13
40992;BME280;29633;49.168;9.848;2023-02-04T07:56:09;98392.22;;;9.79;73.20
40992;BME280;29633;49.168;9.848;2023-02-04T07:58:35;98394.63;;;9.82;73.27
40992;BME280;29633;49.168;9.848;2023-02-04T08:01:01;98406.69;;;9.83;73.17
40992;BME280;29633;49.168;9.848;2023-02-04T08:03:26;98406.44;;;9.87;73.18
40992;BME280;29633;49.168;9.848;2023-02-04T08:05:52;98402.75;;;9.92;73.23
40992;BME280;29633;49.168;9.848;2023-02-04T08:08:19;98406.19;;;9.92;73.07
40992;BME280;29633;49.168;9.848;2023-02-04T08:10:45;98401.69;;;9.96;73.00
40992;BME280;29633;49.168;9.848;2023-02-04T08:13:11;98402.63;;;9.95;73.20
40992;BME280;29633;49.168;9.848;2023-02-04T08:15:36;98411.16;;;9.97;73.17
40992;BME280;29633;49.168;9.848;2023-02-04T08:18:02;98411.22;;;9.95;73.01
40992;BME280;29633;49.168;9.848;2023-02-04T08:20:28;98417.34;;;9.94;73.20
40992;BME280;29633;49.168;9.848;2023-02-04T08:22:54;98431.03;;;9.96;73.15
40992;BME280;29633;49.168;9.848;2023-02-04T08:25:20;98429.06;;;10.01;73.20
40992;BME280;29633;49.168;9.848;2023-02-04T08:27:45;98440.38;;;9.99;73.23
40992;BME280;29633;49.168;9.848;2023-02-04T08:30:11;98434.63;;;9.94;73.25
40992;BME280;29633;49.168;9.848;2023-02-04T08:32:38;98436.44;;;9.92;73.48
40992;BME280;29633;49.168;9.848;2023-02-04T08:35:05;98447.47;;;9.95;73.38
40992;BME280;29633;49.168;9.848;2023-02-04T08:37:30;98444.75;;;9.98;73.38
40992;BME280;29633;49.168;9.848;2023-02-04T08:39:56;98445.56;;;9.99;73.25
40992;BME280;29633;49.168;9.848;2023-02-04T08:42:22;98455.03;;;10.00;73.30
40992;BME280;29633;49.168;9.848;2023-02-04T08:44:50;98463.63;;;10.00;73.42
40992;BME280;29633;49.168;9.848;2023-02-04T08:47:15;98470.50;;;10.01;73.35
40992;BME280;29633;49.168;9.848;2023-02-04T08:49:41;98467.81;;;10.03;73.25
40992;BME280;29633;49.168;9.848;2023-02-04T08:52:07;98478.19;;;10.03;73.26
40992;BME280;29633;49.168;9.848;2023-02-04T08:54:33;98470.25;;;10.06;73.35
40992;BME280;29633;49.168;9.848;2023-02-04T08:57:00;98474.28;;;10.11;73.36
40992;BME280;29633;49.168;9.848;2023-02-04T08:59:25;98487.13;;;10.14;73.14
40992;BME280;29633;49.168;9.848;2023-02-04T09:01:51;98483.41;;;10.20;72.90
40992;BME280;29633;49.168;9.848;2023-02-04T09:04:18;98482.44;;;10.21;73.21
40992;BME280;29633;49.168;9.848;2023-02-04T09:06:44;98482.56;;;10.19;73.16
40992;BME280;29633;49.168;9.848;2023-02-04T09:09:11;98489.16;;;10.25;73.19
40992;BME280;29633;49.168;9.848;2023-02-04T09:11:37;98485.50;;;10.29;73.21
40992;BME280;29633;49.168;9.848;2023-02-04T09:14:03;98492.03;;;10.36;73.31
40992;BME280;29633;49.168;9.848;2023-02-04T09:16:29;98495.97;;;10.43;73.02
40992;BME280;29633;49.168;9.848;2023-02-04T09:18:54;98489.72;;;10.47;72.98
40992;BME280;29633;49.168;9.848;2023-02-04T09:21:20;98491.56;;;10.45;72.96
40992;BME280;29633;49.168;9.848;2023-02-04T09:23:46;98499.19;;;10.48;73.07
40992;BME280;29633;49.168;9.848;2023-02-04T09:26:12;98501.59;;;10.51;73.08
40992;BME280;29633;49.168;9.848;2023-02-04T09:28:38;98504.28;;;10.50;73.18
40992;BME280;29633;49.168;9.848;2023-02-04T09:31:04;98511.19;;;10.49;73.20
40992;BME280;29633;49.168;9.848;2023-02-04T09:33:31;98516.25;;;10.52;73.19
40992;BME280;29633;49.168;9.848;2023-02-04T09:35:57;98528.38;;;10.52;73.05
40992;BME280;29633;49.168;9.848;2023-02-04T09:38:23;98525.09;;;10.48;73.26
40992;BME280;29633;49.168;9.848;2023-02-04T09:41:09;98526.47;;;10.55;73.17
40992;BME280;29633;49.168;9.848;2023-02-04T09:43:41;98522.69;;;10.61;72.85
40992;BME280;29633;49.168;9.848;2023-02-04T09:46:20;98529.41;;;10.65;73.12
40992;BME280;29633;49.168;9.848;2023-02-04T09:48:46;98529.22;;;10.68;72.95
40992;BME280;29633;49.168;9.848;2023-02-04T09:51:13;98541.06;;;10.73;73.19
40992;BME280;29633;49.168;9.848;2023-02-04T09:53:41;98545.91;;;10.79;72.93
40992;BME280;29633;49.168;9.848;2023-02-04T09:56:09;98547.38;;;10.85;72.65
40992;BME280;29633;49.168;9.848;2023-02-04T09:58:35;98541.91;;;10.90;72.88
40992;BME280;29633;49.168;9.848;2023-02-04T10:01:08;98547.88;;;10.92;72.39
40992;BME280;29633;49.168;9.848;2023-02-04T10:03:36;98551.19;;;10.94;72.69
40992;BME280;29633;49.168;9.848;2023-02-04T10:06:18;98551.88;;;10.97;72.59
40992;BME280;29633;49.168;9.848;2023-02-04T10:08:44;98548.44;;;10.97;72.76
40992;BME280;29633;49.168;9.848;2023-02-04T10:11:10;98549.22;;;10.99;72.74
40992;BME280;29633;49.168;9.848;2023-02-04T10:13:39;98549.13;;;11.00;72.74
40992;BME280;29633;49.168;9.848;2023-02-04T10:16:18;98554.22;;;11.02;72.29
40992;BME280;29633;49.168;9.848;2023-02-04T10:18:44;98554.16;;;11.03;72.75
40992;BME280;29633;49.168;9.848;2023-02-04T10:21:33;98554.06;;;11.05;72.47
40992;BME280;29633;49.168;9.848;2023-02-04T10:24:02;98547.97;;;11.06;72.68
40992;BME280;29633;49.168;9.848;2023-02-04T10:26:30;98552.13;;;11.08;72.44
40992;BME280;29633;49.168;9.848;2023-02-04T10:29:02;98548.63;;;11.09;72.42
40992;BME280;29633;49.168;9.848;2023-02-04T10:34:18;98551.97;;;11.11;72.39
40992;BME280;29633;49.168;9.848;2023-02-04T10:36:47;98550.22;;;11.12;72.27
40992;BME280;29633;49.168;9.848;2023-02-04T10:39:25;98545.13;;;11.10;72.19
40992;BME280;29633;49.168;9.848;2023-02-04T10:41:52;98550.88;;;11.15;72.51
40992;BME280;29633;49.168;9.848;2023-02-04T10:44:24;98548.22;;;11.17;72.19
40992;BME280;29633;49.168;9.848;2023-02-04T10:47:05;98549.88;;;11.18;72.48
40992;BME280;29633;49.168;9.848;2023-02-04T10:49:31;98537.66;;;11.20;72.33
40992;BME280;29633;49.168;9.848;2023-02-04T10:51:57;98541.34;;;11.16;72.51
40992;BME280;29633;49.168;9.848;2023-02-04T10:54:25;98537.84;;;11.17;72.56
40992;BME280;29633;49.168;9.848;2023-02-04T10:57:20;98538.56;;;11.19;72.42
40992;BME280;29633;49.168;9.848;2023-02-04T10:59:47;98553.97;;;11.22;72.27
40992;BME280;29633;49.168;9.848;2023-02-04T11:04:49;98545.53;;;11.18;72.37
40992;BME280;29633;49.168;9.848;2023-02-04T11:07:15;98563.63;;;11.20;72.46
40992;BME280;29633;49.168;9.848;2023-02-04T11:09:41;98567.31;;;11.16;72.69
40992;BME280;29633;49.168;9.848;2023-02-04T11:12:19;98562.03;;;11.17;72.61
40992;BME280;29633;49.168;9.848;2023-02-04T11:14:56;98563.44;;;11.23;72.26
40992;BME280;29633;49.168;9.848;2023-02-04T11:17:29;98561.47;;;11.28;72.35
40992;BME280;29633;49.168;9.848;2023-02-04T11:19:55;98556.44;;;11.25;72.15
40992;BME280;29633;49.168;9.848;2023-02-04T11:22:23;98561.03;;;11.20;72.65
40992;BME280;29633;49.168;9.848;2023-02-04T11:24:50;98559.28;;;11.20;72.57
40992;BME280;29633;49.168;9.848;2023-02-04T11:27:24;98555.59;;;11.24;72.46
40992;BME280;29633;49.168;9.848;2023-02-04T11:29:51;98557.19;;;11.27;72.25
40992;BME280;29633;49.168;9.848;2023-02-04T11:32:33;98554.75;;;11.24;72.41
40992;BME280;29633;49.168;9.848;2023-02-04T11:35:07;98555.59;;;11.24;72.13
40992;BME280;29633;49.168;9.848;2023-02-04T11:37:44;98546.72;;;11.28;72.13
40992;BME280;29633;49.168;9.848;2023-02-04T11:40:34;98549.88;;;11.33;72.04
40992;BME280;29633;49.168;9.848;2023-02-04T11:43:12;98544.03;;;11.30;72.07
40992;BME280;29633;49.168;9.848;2023-02-04T11:45:39;98553.66;;;11.28;72.26
40992;BME280;29633;49.168;9.848;2023-02-04T11:48:14;98551.97;;;11.27;72.32
40992;BME280;29633;49.168;9.848;2023-02-04T11:50:40;98562.28;;;11.28;72.24
40992;BME280;29633;49.168;9.848;2023-02-04T11:53:09;98566.81;;;11.25;72.32
40992;BME280;29633;49.168;9.848;2023-02-04T11:55:36;98571.75;;;11.29;72.50
40992;BME280;29633;49.168;9.848;2023-02-04T11:58:13;98567.22;;;11.33;72.27
40992;BME280;29633;49.168;9.848;2023-02-04T12:00:39;98567.81;;;11.38;72.17
40992;BME280;29633;49.168;9.848;2023-02-04T12:03:20;98562.44;;;11.41;72.02
40992;BME280;29633;49.168;9.848;2023-02-04T12:05:46;98558.94;;;11.42;72.23
40992;BME280;29633;49.168;9.848;2023-02-04T12:11:22;98569.31;;;11.42;71.89
40992;BME280;29633;49.168;9.848;2023-02-04T12:13:48;98561.59;;;11.41;71.98
40992;BME280;29633;49.168;9.848;2023-02-04T12:16:14;98572.09;;;11.39;72.12
40992;BME280;29633;49.168;9.848;2023-02-04T12:18:40;98576.44;;;11.39;71.90
40992;BME280;29633;49.168;9.848;2023-02-04T12:21:06;98577.34;;;11.38;72.10
40992;BME280;29633;49.168;9.848;2023-02-04T12:23:31;98585.16;;;11.38;72.13
40992;BME280;29633;49.168;9.848;2023-02-04T12:25:57;98581.72;;;11.37;71.83
40992;BME280;29633;49.168;9.848;2023-02-04T12:28:24;98579.09;;;11.37;71.86
40992;BME280;29633;49.168;9.848;2023-02-04T12:30:49;98578.19;;;11.38;71.98
40992;BME280;29633;49.168;9.848;2023-02-04T12:33:15;98589.59;;;11.35;71.78
40992;BME280;29633;49.168;9.848;2023-02-04T12:35:41;98582.78;;;11.33;71.90
40992;BME280;29633;49.168;9.848;2023-02-04T12:38:06;98575.84;;;11.33;72.00
40992;BME280;29633;49.168;9.848;2023-02-04T12:40:33;98574.16;;;11.32;71.70
40992;BME280;29633;49.168;9.848;2023-02-04T12:42:58;98580.19;;;11.33;71.85
40992;BME280;29633;49.168;9.848;2023-02-04T12:45:24;98574.16;;;11.32;71.71
40992;BME280;29633;49.168;9.848;2023-02-04T12:47:50;98581.88;;;11.34;71.67
40992;BME280;29633;49.168;9.848;2023-02-04T12:50:17;98577.44;;;11.36;71.80
40992;BME280;29633;49.168;9.848;2023-02-04T12:52:53;98576.50;;;11.37;71.48
40992;BME280;29633;49.168;9.848;2023-02-04T12:55:19;98581.72;;;11.37;71.75
40992;BME280;29633;49.168;9.848;2023-02-04T12:57:45;98580.88;;;11.36;71.62
40992;BME280;29633;49.168;9.848;2023-02-04T13:00:12;98586.06;;;11.36;71.77
40992;BME280;29633;49.168;9.848;2023-02-04T13:02:38;98589.50;;;11.37;71.73
40992;BME280;29633;49.168;9.848;2023-02-04T13:05:04;98592.09;;;11.37;71.69
40992;BME280;29633;49.168;9.848;2023-02-04T13:07:30;98588.66;;;11.36;71.51
40992;BME280;29633;49.168;9.848;2023-02-04T13:09:56;98589.59;;;11.35;71.60
40992;BME280;29633;49.168;9.848;2023-02-04T13:12:21;98586.91;;;11.37;71.59